St. John's, Canada
Current Conditions -  °F | °C
As of 9:00 PM on Friday 24 Oct 2014 (Local Time) from CYYT Reporting Station
Light Rain Light Rain  
Wind Chill: 50°   Ceiling: 200
Heat Index: 50°   Visibility: 0.5mi
Dew Point: 50°   Wind: 5mph
Humidity: 100%   Direction: 70°ENE
Pressure: 29.63"   Gusts: NA
Location:  47.58°N, 52.7°W
Report Text: CYYT 242300Z 07004KT 1/2SM R11/3000V4500FT/U -RA FG VV002 10/10 A2963 RMK FG8 SLP036
Loading
Personal Weather Stations






























Interactive Weather Map
Tropical Storm Tracking
New forecast layout! Learn more

10-Day Weather Forecast

Advertisements
Track Severe Weather on mobile